Terminal Aerodrome Forecast
Issued by NWS Sioux Falls, SD

Home | Current Version | Previous Version | Graphics & Text | Print | Product List | Glossary On
Versions: 1 2 3 4 5 6 7 8 9 10 11 12 13 14 15 16 17
974
FTUS43 KFSD 250531
TAFFSD
TAF
KFSD 250531Z 2506/2606 14005KT P6SM FEW100 BKN200
     FM250900 12006KT P6SM SHRA VCTS BKN040CB OVC090
     FM251200 13007KT P6SM -SHRA VCTS SCT025 OVC035CB
     FM251500 16010KT P6SM BKN035
     FM251800 19010KT P6SM BKN050
     FM252000 19010KT P6SM SCT080=

USA.gov is the U.S. government's official web portal to all federal, state and local government web resources and services.